sensor_id;sensor_type;location;lat;lon;timestamp;pressure;altitude;pressure_sealevel;temperature;humidity
78990;BME280;68390;52.130;21.218;2023-07-22T00:01:35;99924.09;;;15.60;81.51
78990;BME280;68390;52.130;21.218;2023-07-22T00:04:02;99931.13;;;15.63;81.70
78990;BME280;68390;52.130;21.218;2023-07-22T00:06:27;99930.69;;;15.66;81.59
78990;BME280;68390;52.130;21.218;2023-07-22T00:08:52;99915.16;;;15.65;81.88
78990;BME280;68390;52.130;21.218;2023-07-22T00:11:19;99924.09;;;15.67;81.87
78990;BME280;68390;52.130;21.218;2023-07-22T00:13:45;99923.00;;;15.68;82.04
78990;BME280;68390;52.130;21.218;2023-07-22T00:16:10;99915.16;;;15.65;82.03
78990;BME280;68390;52.130;21.218;2023-07-22T00:18:36;99920.22;;;15.68;82.76
78990;BME280;68390;52.130;21.218;2023-07-22T00:21:01;99928.53;;;15.68;82.97
78990;BME280;68390;52.130;21.218;2023-07-22T00:23:27;99922.19;;;15.67;82.77
78990;BME280;68390;52.130;21.218;2023-07-22T00:25:52;99921.09;;;15.68;83.25
78990;BME280;68390;52.130;21.218;2023-07-22T00:28:17;99919.41;;;15.67;82.67
78990;BME280;68390;52.130;21.218;2023-07-22T00:30:43;99927.72;;;15.67;82.69
78990;BME280;68390;52.130;21.218;2023-07-22T00:33:09;99923.63;;;15.70;82.41
78990;BME280;68390;52.130;21.218;2023-07-22T00:35:35;99927.47;;;15.69;82.94
78990;BME280;68390;52.130;21.218;2023-07-22T00:38:00;99934.94;;;15.75;83.40
78990;BME280;68390;52.130;21.218;2023-07-22T00:40:27;99924.94;;;15.74;83.05
78990;BME280;68390;52.130;21.218;2023-07-22T00:42:52;99932.59;;;15.72;84.15
78990;BME280;68390;52.130;21.218;2023-07-22T00:45:17;99929.63;;;15.67;84.88
78990;BME280;68390;52.130;21.218;2023-07-22T00:47:44;99928.13;;;15.64;85.10
78990;BME280;68390;52.130;21.218;2023-07-22T00:50:09;99926.44;;;15.63;85.11
78990;BME280;68390;52.130;21.218;2023-07-22T00:52:37;99926.00;;;15.60;85.74
78990;BME280;68390;52.130;21.218;2023-07-22T00:55:04;99923.22;;;15.60;85.72
78990;BME280;68390;52.130;21.218;2023-07-22T00:57:30;99916.00;;;15.59;86.66
78990;BME280;68390;52.130;21.218;2023-07-22T00:59:55;99919.59;;;15.59;86.15
78990;BME280;68390;52.130;21.218;2023-07-22T01:02:21;99911.75;;;15.56;86.70
78990;BME280;68390;52.130;21.218;2023-07-22T01:04:48;99914.06;;;15.53;87.24
78990;BME280;68390;52.130;21.218;2023-07-22T01:07:14;99915.34;;;15.50;87.79
78990;BME280;68390;52.130;21.218;2023-07-22T01:09:42;99907.25;;;15.49;87.30
78990;BME280;68390;52.130;21.218;2023-07-22T01:12:08;99905.53;;;15.48;88.24
78990;BME280;68390;52.130;21.218;2023-07-22T01:14:37;99903.22;;;15.45;87.95
78990;BME280;68390;52.130;21.218;2023-07-22T01:17:05;99906.63;;;15.47;87.52
78990;BME280;68390;52.130;21.218;2023-07-22T01:19:32;99900.25;;;15.46;89.47
78990;BME280;68390;52.130;21.218;2023-07-22T01:21:59;99903.88;;;15.47;89.96
78990;BME280;68390;52.130;21.218;2023-07-22T01:24:25;99900.25;;;15.46;88.54
78990;BME280;68390;52.130;21.218;2023-07-22T01:26:51;99903.88;;;15.47;88.13
78990;BME280;68390;52.130;21.218;2023-07-22T01:29:16;99910.22;;;15.47;89.29
78990;BME280;68390;52.130;21.218;2023-07-22T01:31:42;99903.00;;;15.46;88.58
78990;BME280;68390;52.130;21.218;2023-07-22T01:34:07;99903.88;;;15.47;88.51
78990;BME280;68390;52.130;21.218;2023-07-22T01:36:32;99906.84;;;15.45;89.54
78990;BME280;68390;52.130;21.218;2023-07-22T01:38:59;99908.75;;;15.45;89.59
78990;BME280;68390;52.130;21.218;2023-07-22T01:41:25;99903.88;;;15.47;89.20
78990;BME280;68390;52.130;21.218;2023-07-22T01:43:51;99902.75;;;15.48;88.68
78990;BME280;68390;52.130;21.218;2023-07-22T01:46:16;99897.03;;;15.49;89.28
78990;BME280;68390;52.130;21.218;2023-07-22T01:48:41;99894.91;;;15.51;88.69
78990;BME280;68390;52.130;21.218;2023-07-22T01:51:07;99882.75;;;15.52;89.00
78990;BME280;68390;52.130;21.218;2023-07-22T01:53:33;99872.56;;;15.53;88.58
78990;BME280;68390;52.130;21.218;2023-07-22T01:55:59;99880.84;;;15.53;88.98
78990;BME280;68390;52.130;21.218;2023-07-22T01:58:24;99874.47;;;15.52;89.56
78990;BME280;68390;52.130;21.218;2023-07-22T02:00:50;99874.47;;;15.52;88.97
78990;BME280;68390;52.130;21.218;2023-07-22T02:03:16;99877.44;;;15.51;90.58
78990;BME280;68390;52.130;21.218;2023-07-22T02:05:41;99873.63;;;15.45;92.60
78990;BME280;68390;52.130;21.218;2023-07-22T02:08:06;99874.69;;;15.44;92.54
78990;BME280;68390;52.130;21.218;2023-07-22T02:10:32;99863.63;;;15.44;90.92
78990;BME280;68390;52.130;21.218;2023-07-22T02:12:57;99862.56;;;15.45;91.30
78990;BME280;68390;52.130;21.218;2023-07-22T02:15:22;99871.06;;;15.43;92.71
78990;BME280;68390;52.130;21.218;2023-07-22T02:17:49;99869.81;;;15.46;92.49
78990;BME280;68390;52.130;21.218;2023-07-22T02:20:15;99871.06;;;15.43;93.17
78990;BME280;68390;52.130;21.218;2023-07-22T02:22:41;99869.59;;;15.41;93.61
78990;BME280;68390;52.130;21.218;2023-07-22T02:25:06;99867.66;;;15.41;93.34
78990;BME280;68390;52.130;21.218;2023-07-22T02:27:32;99862.56;;;15.38;93.14
78990;BME280;68390;52.130;21.218;2023-07-22T02:29:57;99866.38;;;15.37;93.20
78990;BME280;68390;52.130;21.218;2023-07-22T02:32:23;99868.72;;;15.40;92.79
78990;BME280;68390;52.130;21.218;2023-07-22T02:34:48;99871.91;;;15.37;93.73
78990;BME280;68390;52.130;21.218;2023-07-22T02:37:13;99872.56;;;15.39;92.61
78990;BME280;68390;52.130;21.218;2023-07-22T02:39:39;99875.31;;;15.39;93.54
78990;BME280;68390;52.130;21.218;2023-07-22T02:42:04;99876.81;;;15.42;92.55
78990;BME280;68390;52.130;21.218;2023-07-22T02:44:30;99878.97;;;15.47;92.46
78990;BME280;68390;52.130;21.218;2023-07-22T02:46:55;99877.00;;;15.47;91.70
78990;BME280;68390;52.130;21.218;2023-07-22T02:49:20;99881.06;;;15.51;91.82
78990;BME280;68390;52.130;21.218;2023-07-22T02:51:46;99881.91;;;15.52;92.37
78990;BME280;68390;52.130;21.218;2023-07-22T02:54:11;99872.56;;;15.53;92.39
78990;BME280;68390;52.130;21.218;2023-07-22T02:56:37;99872.56;;;15.53;92.67
78990;BME280;68390;52.130;21.218;2023-07-22T02:59:02;99878.09;;;15.53;92.26
78990;BME280;68390;52.130;21.218;2023-07-22T03:01:28;99870.63;;;15.53;91.88
78990;BME280;68390;52.130;21.218;2023-07-22T03:03:54;99862.53;;;15.52;93.33
78990;BME280;68390;52.130;21.218;2023-07-22T03:06:20;99855.31;;;15.51;93.11
78990;BME280;68390;52.130;21.218;2023-07-22T03:08:45;99854.88;;;15.54;93.67
78990;BME280;68390;52.130;21.218;2023-07-22T03:11:10;99857.84;;;15.52;94.12
78990;BME280;68390;52.130;21.218;2023-07-22T03:13:36;99853.38;;;15.51;94.72
78990;BME280;68390;52.130;21.218;2023-07-22T03:16:01;99845.50;;;15.48;94.89
78990;BME280;68390;52.130;21.218;2023-07-22T03:18:30;99854.25;;;15.52;93.59
78990;BME280;68390;52.130;21.218;2023-07-22T03:20:56;99844.69;;;15.54;93.38
78990;BME280;68390;52.130;21.218;2023-07-22T03:23:22;99846.41;;;15.55;93.71
78990;BME280;68390;52.130;21.218;2023-07-22T03:25:47;99833.63;;;15.54;93.65
78990;BME280;68390;52.130;21.218;2023-07-22T03:28:13;99833.63;;;15.54;95.08
78990;BME280;68390;52.130;21.218;2023-07-22T03:30:38;99837.88;;;15.57;94.48
78990;BME280;68390;52.130;21.218;2023-07-22T03:33:03;99847.84;;;15.58;94.12
78990;BME280;68390;52.130;21.218;2023-07-22T03:35:29;99861.28;;;15.61;94.22
78990;BME280;68390;52.130;21.218;2023-07-22T03:37:55;99863.63;;;15.64;94.53
78990;BME280;68390;52.130;21.218;2023-07-22T03:40:20;99860.84;;;15.64;94.50
78990;BME280;68390;52.130;21.218;2023-07-22T03:42:48;99867.03;;;15.66;95.35
78990;BME280;68390;52.130;21.218;2023-07-22T03:45:14;99854.47;;;15.63;94.47
78990;BME280;68390;52.130;21.218;2023-07-22T03:47:39;99852.56;;;15.64;93.88
78990;BME280;68390;52.130;21.218;2023-07-22T03:50:06;99861.28;;;15.61;94.20
78990;BME280;68390;52.130;21.218;2023-07-22T03:52:32;99868.94;;;15.59;94.35
78990;BME280;68390;52.130;21.218;2023-07-22T03:54:57;99866.81;;;15.61;94.69
78990;BME280;68390;52.130;21.218;2023-07-22T03:57:26;99866.19;;;15.65;93.97
78990;BME280;68390;52.130;21.218;2023-07-22T03:59:55;99865.72;;;15.68;93.81
78990;BME280;68390;52.130;21.218;2023-07-22T04:02:21;99868.72;;;15.73;93.55
78990;BME280;68390;52.130;21.218;2023-07-22T04:04:46;99873.56;;;15.78;93.95
78990;BME280;68390;52.130;21.218;2023-07-22T04:07:12;99878.25;;;15.84;94.23
78990;BME280;68390;52.130;21.218;2023-07-22T04:09:37;99875.25;;;15.92;93.34
78990;BME280;68390;52.130;21.218;2023-07-22T04:12:03;99865.00;;;15.99;92.86
78990;BME280;68390;52.130;21.218;2023-07-22T04:14:29;99876.47;;;16.09;92.49
78990;BME280;68390;52.130;21.218;2023-07-22T04:16:54;99880.72;;;16.19;92.91
78990;BME280;68390;52.130;21.218;2023-07-22T04:19:19;99871.50;;;16.25;92.83
78990;BME280;68390;52.130;21.218;2023-07-22T04:21:45;99868.09;;;16.29;92.42
78990;BME280;68390;52.130;21.218;2023-07-22T04:24:10;99869.31;;;16.33;92.24
78990;BME280;68390;52.130;21.218;2023-07-22T04:26:36;99865.28;;;16.36;91.84
78990;BME280;68390;52.130;21.218;2023-07-22T04:29:01;99879.09;;;16.42;92.47
78990;BME280;68390;52.130;21.218;2023-07-22T04:31:26;99886.75;;;16.47;92.73
78990;BME280;68390;52.130;21.218;2023-07-22T04:33:52;99881.38;;;16.52;92.77
78990;BME280;68390;52.130;21.218;2023-07-22T04:36:17;99880.72;;;16.57;92.47
78990;BME280;68390;52.130;21.218;2023-07-22T04:38:43;99882.41;;;16.64;92.67
78990;BME280;68390;52.130;21.218;2023-07-22T04:41:08;99887.09;;;16.70;91.77
78990;BME280;68390;52.130;21.218;2023-07-22T04:43:33;99891.09;;;16.74;90.93
78990;BME280;68390;52.130;21.218;2023-07-22T04:45:59;99899.59;;;16.79;91.34
78990;BME280;68390;52.130;21.218;2023-07-22T04:48:24;99898.69;;;16.85;90.94
78990;BME280;68390;52.130;21.218;2023-07-22T04:50:50;99900.81;;;16.90;90.23
78990;BME280;68390;52.130;21.218;2023-07-22T04:53:17;99901.19;;;16.94;90.17
78990;BME280;68390;52.130;21.218;2023-07-22T04:55:42;99904.59;;;16.96;90.23
78990;BME280;68390;52.130;21.218;2023-07-22T04:58:08;99896.06;;;16.97;89.81
78990;BME280;68390;52.130;21.218;2023-07-22T05:00:35;99896.91;;;16.98;89.76
78990;BME280;68390;52.130;21.218;2023-07-22T05:03:03;99901.56;;;17.04;89.00
78990;BME280;68390;52.130;21.218;2023-07-22T05:05:28;99909.66;;;17.05;88.40
78990;BME280;68390;52.130;21.218;2023-07-22T05:07:54;99893.63;;;17.07;89.34
78990;BME280;68390;52.130;21.218;2023-07-22T05:10:19;99898.53;;;17.12;90.18
78990;BME280;68390;52.130;21.218;2023-07-22T05:12:45;99898.06;;;17.15;90.05
78990;BME280;68390;52.130;21.218;2023-07-22T05:15:12;99898.03;;;17.21;89.65
78990;BME280;68390;52.130;21.218;2023-07-22T05:17:38;99903.50;;;17.28;88.79
78990;BME280;68390;52.130;21.218;2023-07-22T05:20:04;99904.28;;;17.35;88.31
78990;BME280;68390;52.130;21.218;2023-07-22T05:22:32;99902.56;;;17.41;88.32
78990;BME280;68390;52.130;21.218;2023-07-22T05:24:57;99906.09;;;17.48;87.78
78990;BME280;68390;52.130;21.218;2023-07-22T05:27:22;99893.25;;;17.53;87.37
78990;BME280;68390;52.130;21.218;2023-07-22T05:29:48;99898.50;;;17.61;86.74
78990;BME280;68390;52.130;21.218;2023-07-22T05:32:13;99894.41;;;17.71;86.97
78990;BME280;68390;52.130;21.218;2023-07-22T05:34:38;99900.50;;;17.79;86.81
78990;BME280;68390;52.130;21.218;2023-07-22T05:37:04;99913.00;;;17.88;86.04
78990;BME280;68390;52.130;21.218;2023-07-22T05:39:29;99922.38;;;17.94;85.20
78990;BME280;68390;52.130;21.218;2023-07-22T05:41:55;99921.19;;;18.02;85.71
78990;BME280;68390;52.130;21.218;2023-07-22T05:44:21;99920.66;;;18.11;85.10
78990;BME280;68390;52.130;21.218;2023-07-22T05:46:46;99917.03;;;18.29;83.50
78990;BME280;68390;52.130;21.218;2023-07-22T05:49:11;99910.06;;;18.38;81.21
78990;BME280;68390;52.130;21.218;2023-07-22T05:51:37;99917.50;;;18.44;80.70
78990;BME280;68390;52.130;21.218;2023-07-22T05:54:02;99920.91;;;18.46;79.70
78990;BME280;68390;52.130;21.218;2023-07-22T05:56:28;99913.25;;;18.60;80.07
78990;BME280;68390;52.130;21.218;2023-07-22T05:58:53;99919.59;;;18.67;79.52
78990;BME280;68390;52.130;21.218;2023-07-22T06:01:19;99925.66;;;18.76;78.11
78990;BME280;68390;52.130;21.218;2023-07-22T06:03:45;99932.44;;;18.80;78.73
78990;BME280;68390;52.130;21.218;2023-07-22T06:06:10;99928.81;;;18.79;77.74
78990;BME280;68390;52.130;21.218;2023-07-22T06:08:36;99936.44;;;18.84;78.21
78990;BME280;68390;52.130;21.218;2023-07-22T06:11:01;99932.50;;;18.91;78.48
78990;BME280;68390;52.130;21.218;2023-07-22T06:13:27;99941.72;;;19.03;76.82
78990;BME280;68390;52.130;21.218;2023-07-22T06:15:52;99936.22;;;19.15;75.98
78990;BME280;68390;52.130;21.218;2023-07-22T06:18:17;99940.56;;;19.23;75.27
78990;BME280;68390;52.130;21.218;2023-07-22T06:20:44;99950.22;;;19.09;75.57
78990;BME280;68390;52.130;21.218;2023-07-22T06:23:09;99943.44;;;19.04;76.65
78990;BME280;68390;52.130;21.218;2023-07-22T06:25:35;99949.00;;;19.04;75.87
78990;BME280;68390;52.130;21.218;2023-07-22T06:28:00;99951.31;;;19.08;77.22
78990;BME280;68390;52.130;21.218;2023-07-22T06:30:25;99948.81;;;19.18;76.15
78990;BME280;68390;52.130;21.218;2023-07-22T06:32:51;99950.78;;;19.29;76.72
78990;BME280;68390;52.130;21.218;2023-07-22T06:35:16;99952.13;;;19.38;76.89
78990;BME280;68390;52.130;21.218;2023-07-22T06:37:42;99952.84;;;19.45;73.64
78990;BME280;68390;52.130;21.218;2023-07-22T06:40:07;99955.09;;;19.55;73.48
78990;BME280;68390;52.130;21.218;2023-07-22T06:42:33;99946.97;;;19.53;71.67
78990;BME280;68390;52.130;21.218;2023-07-22T06:44:58;99945.66;;;19.56;71.74
78990;BME280;68390;52.130;21.218;2023-07-22T06:47:24;99954.25;;;19.54;69.85
78990;BME280;68390;52.130;21.218;2023-07-22T06:49:49;99956.91;;;19.49;67.28
78990;BME280;68390;52.130;21.218;2023-07-22T06:52:16;99962.91;;;19.46;67.55
78990;BME280;68390;52.130;21.218;2023-07-22T06:54:41;99959.03;;;19.47;67.42
78990;BME280;68390;52.130;21.218;2023-07-22T06:57:06;99966.72;;;19.52;68.32
78990;BME280;68390;52.130;21.218;2023-07-22T06:59:32;99955.09;;;19.55;67.80
78990;BME280;68390;52.130;21.218;2023-07-22T07:01:57;99963.81;;;19.58;69.00
78990;BME280;68390;52.130;21.218;2023-07-22T07:04:23;99956.66;;;19.62;68.86
78990;BME280;68390;52.130;21.218;2023-07-22T07:06:49;99967.72;;;19.69;68.00
78990;BME280;68390;52.130;21.218;2023-07-22T07:09:15;99963.59;;;19.60;67.00
78990;BME280;68390;52.130;21.218;2023-07-22T07:11:41;99967.94;;;19.56;67.37
78990;BME280;68390;52.130;21.218;2023-07-22T07:14:06;99963.31;;;19.50;67.67
78990;BME280;68390;52.130;21.218;2023-07-22T07:16:31;99966.13;;;19.50;70.45
78990;BME280;68390;52.130;21.218;2023-07-22T07:18:58;99973.13;;;19.52;67.71
78990;BME280;68390;52.130;21.218;2023-07-22T07:21:24;99976.75;;;19.53;68.64
78990;BME280;68390;52.130;21.218;2023-07-22T07:23:51;99975.19;;;19.57;68.42
78990;BME280;68390;52.130;21.218;2023-07-22T07:26:16;99983.31;;;19.58;70.06
78990;BME280;68390;52.130;21.218;2023-07-22T07:28:42;99977.75;;;19.58;69.02
78990;BME280;68390;52.130;21.218;2023-07-22T07:31:07;99986.34;;;19.57;69.84
78990;BME280;68390;52.130;21.218;2023-07-22T07:33:33;99993.84;;;19.56;70.07
78990;BME280;68390;52.130;21.218;2023-07-22T07:35:59;99991.44;;;19.60;67.67
78990;BME280;68390;52.130;21.218;2023-07-22T07:38:24;99989.50;;;19.60;66.96
78990;BME280;68390;52.130;21.218;2023-07-22T07:40:55;99989.84;;;19.64;66.17
78990;BME280;68390;52.130;21.218;2023-07-22T07:43:21;99995.19;;;19.65;66.23
78990;BME280;68390;52.130;21.218;2023-07-22T07:45:46;100002.09;;;19.63;66.81
78990;BME280;68390;52.130;21.218;2023-07-22T07:48:12;99998.22;;;19.64;66.44
78990;BME280;68390;52.130;21.218;2023-07-22T07:50:37;100002.47;;;19.66;65.89
78990;BME280;68390;52.130;21.218;2023-07-22T07:53:03;100003.31;;;19.67;67.03
78990;BME280;68390;52.130;21.218;2023-07-22T07:55:28;100005.41;;;19.71;65.59
78990;BME280;68390;52.130;21.218;2023-07-22T07:57:53;100004.44;;;19.77;66.32
78990;BME280;68390;52.130;21.218;2023-07-22T08:00:19;100015.72;;;19.83;65.75
78990;BME280;68390;52.130;21.218;2023-07-22T08:02:45;100020.94;;;19.91;65.19
78990;BME280;68390;52.130;21.218;2023-07-22T08:05:11;100021.78;;;20.03;63.90
78990;BME280;68390;52.130;21.218;2023-07-22T08:07:37;100017.19;;;20.20;64.73
78990;BME280;68390;52.130;21.218;2023-07-22T08:10:04;100017.56;;;20.35;62.74
78990;BME280;68390;52.130;21.218;2023-07-22T08:12:30;100019.53;;;20.35;62.71
78990;BME280;68390;52.130;21.218;2023-07-22T08:14:56;100032.34;;;20.47;61.37
78990;BME280;68390;52.130;21.218;2023-07-22T08:17:21;100025.91;;;20.59;62.65
78990;BME280;68390;52.130;21.218;2023-07-22T08:19:47;100029.06;;;20.62;60.25
78990;BME280;68390;52.130;21.218;2023-07-22T08:22:12;100022.50;;;20.68;60.11
78990;BME280;68390;52.130;21.218;2023-07-22T08:24:37;100035.81;;;20.78;60.32
78990;BME280;68390;52.130;21.218;2023-07-22T08:27:03;100029.16;;;20.79;60.16
78990;BME280;68390;52.130;21.218;2023-07-22T08:29:29;100035.94;;;20.83;59.13
78990;BME280;68390;52.130;21.218;2023-07-22T08:31:54;100027.94;;;20.86;58.65
78990;BME280;68390;52.130;21.218;2023-07-22T08:34:19;100044.13;;;21.01;58.32
78990;BME280;68390;52.130;21.218;2023-07-22T08:36:45;100034.41;;;21.15;59.98
78990;BME280;68390;52.130;21.218;2023-07-22T08:39:10;100047.09;;;21.35;57.16
78990;BME280;68390;52.130;21.218;2023-07-22T08:41:36;100046.78;;;21.19;55.90
78990;BME280;68390;52.130;21.218;2023-07-22T08:44:04;100060.38;;;21.28;56.78
78990;BME280;68390;52.130;21.218;2023-07-22T08:46:33;100044.66;;;21.38;57.14
78990;BME280;68390;52.130;21.218;2023-07-22T08:49:00;100061.25;;;21.45;54.83
78990;BME280;68390;52.130;21.218;2023-07-22T08:51:26;100068.25;;;21.59;54.26
78990;BME280;68390;52.130;21.218;2023-07-22T08:53:56;100069.91;;;21.60;53.91
78990;BME280;68390;52.130;21.218;2023-07-22T08:56:25;100064.31;;;21.60;53.11
78990;BME280;68390;52.130;21.218;2023-07-22T08:58:53;100057.75;;;21.66;56.05
78990;BME280;68390;52.130;21.218;2023-07-22T09:01:20;100042.16;;;21.70;51.08
78990;BME280;68390;52.130;21.218;2023-07-22T09:03:46;100060.97;;;21.75;53.16
78990;BME280;68390;52.130;21.218;2023-07-22T09:06:12;100053.81;;;21.79;55.26
78990;BME280;68390;52.130;21.218;2023-07-22T09:08:38;100060.00;;;21.97;55.77
78990;BME280;68390;52.130;21.218;2023-07-22T09:11:04;100061.38;;;22.12;52.01
78990;BME280;68390;52.130;21.218;2023-07-22T09:13:30;100071.72;;;22.28;53.50
78990;BME280;68390;52.130;21.218;2023-07-22T09:15:59;100069.69;;;22.40;51.65
78990;BME280;68390;52.130;21.218;2023-07-22T09:18:25;100075.44;;;22.50;49.55
78990;BME280;68390;52.130;21.218;2023-07-22T09:20:51;100072.25;;;22.63;50.16
78990;BME280;68390;52.130;21.218;2023-07-22T09:23:16;100081.66;;;22.74;48.95
78990;BME280;68390;52.130;21.218;2023-07-22T09:25:42;100066.72;;;22.85;49.01
78990;BME280;68390;52.130;21.218;2023-07-22T09:28:08;100076.91;;;22.75;49.99
78990;BME280;68390;52.130;21.218;2023-07-22T09:30:36;100079.31;;;22.83;49.24
78990;BME280;68390;52.130;21.218;2023-07-22T09:33:04;100073.31;;;22.96;47.58
78990;BME280;68390;52.130;21.218;2023-07-22T09:35:31;100078.53;;;23.09;48.03
78990;BME280;68390;52.130;21.218;2023-07-22T09:37:58;100069.66;;;23.17;50.24
78990;BME280;68390;52.130;21.218;2023-07-22T09:40:26;100076.66;;;23.15;48.12
78990;BME280;68390;52.130;21.218;2023-07-22T09:42:53;100076.97;;;23.18;49.74
78990;BME280;68390;52.130;21.218;2023-07-22T09:45:21;100092.47;;;23.26;49.02
78990;BME280;68390;52.130;21.218;2023-07-22T09:47:48;100095.38;;;23.53;47.61
78990;BME280;68390;52.130;21.218;2023-07-22T09:50:19;100095.69;;;23.56;46.91
78990;BME280;68390;52.130;21.218;2023-07-22T09:52:46;100085.38;;;23.62;47.25
78990;BME280;68390;52.130;21.218;2023-07-22T09:55:17;100086.47;;;23.61;49.04
78990;BME280;68390;52.130;21.218;2023-07-22T09:57:45;100084.78;;;23.16;48.35
78990;BME280;68390;52.130;21.218;2023-07-22T10:00:15;100088.25;;;23.01;48.44
78990;BME280;68390;52.130;21.218;2023-07-22T10:02:42;100090.00;;;22.69;49.41
78990;BME280;68390;52.130;21.218;2023-07-22T10:05:15;100090.31;;;22.89;48.78
78990;BME280;68390;52.130;21.218;2023-07-22T10:07:47;100094.50;;;22.70;49.51
78990;BME280;68390;52.130;21.218;2023-07-22T10:10:16;100095.47;;;22.42;48.17
78990;BME280;68390;52.130;21.218;2023-07-22T10:12:42;100100.63;;;22.33;48.54
78990;BME280;68390;52.130;21.218;2023-07-22T10:15:12;100100.69;;;22.55;47.97
78990;BME280;68390;52.130;21.218;2023-07-22T10:17:42;100097.00;;;22.88;47.54
78990;BME280;68390;52.130;21.218;2023-07-22T10:20:12;100097.03;;;23.10;47.50
78990;BME280;68390;52.130;21.218;2023-07-22T10:22:42;100101.22;;;23.29;47.09
78990;BME280;68390;52.130;21.218;2023-07-22T10:25:10;100105.84;;;23.40;44.88
78990;BME280;68390;52.130;21.218;2023-07-22T10:27:36;100108.75;;;23.07;44.23
78990;BME280;68390;52.130;21.218;2023-07-22T10:30:05;100106.44;;;22.65;43.33
78990;BME280;68390;52.130;21.218;2023-07-22T10:32:38;100104.56;;;22.88;45.96
78990;BME280;68390;52.130;21.218;2023-07-22T10:35:07;100101.19;;;23.08;43.91
78990;BME280;68390;52.130;21.218;2023-07-22T10:37:35;100091.09;;;23.28;44.11
78990;BME280;68390;52.130;21.218;2023-07-22T10:40:27;100103.28;;;23.61;44.17
78990;BME280;68390;52.130;21.218;2023-07-22T10:42:58;100094.22;;;23.75;42.59
78990;BME280;68390;52.130;21.218;2023-07-22T10:45:26;100107.88;;;23.99;43.67
78990;BME280;68390;52.130;21.218;2023-07-22T10:48:06;100103.44;;;23.98;41.79
78990;BME280;68390;52.130;21.218;2023-07-22T10:53:09;100105.63;;;23.96;42.12
78990;BME280;68390;52.130;21.218;2023-07-22T10:56:04;100106.31;;;23.81;42.57
78990;BME280;68390;52.130;21.218;2023-07-22T10:58:31;100109.34;;;23.74;42.35
78990;BME280;68390;52.130;21.218;2023-07-22T11:07:02;100109.28;;;23.96;43.30
78990;BME280;68390;52.130;21.218;2023-07-22T11:12:14;100110.19;;;23.75;40.97
78990;BME280;68390;52.130;21.218;2023-07-22T11:15:01;100105.84;;;23.62;43.65
78990;BME280;68390;52.130;21.218;2023-07-22T11:17:29;100100.97;;;23.53;42.75
78990;BME280;68390;52.130;21.218;2023-07-22T11:20:00;100097.28;;;23.74;46.42
78990;BME280;68390;52.130;21.218;2023-07-22T11:22:26;100094.31;;;23.86;42.69
78990;BME280;68390;52.130;21.218;2023-07-22T11:24:54;100096.22;;;24.07;42.36
78990;BME280;68390;52.130;21.218;2023-07-22T11:27:20;100102.56;;;24.24;44.63
78990;BME280;68390;52.130;21.218;2023-07-22T11:29:45;100095.34;;;24.33;42.32
78990;BME280;68390;52.130;21.218;2023-07-22T11:32:17;100105.81;;;24.43;44.21
78990;BME280;68390;52.130;21.218;2023-07-22T11:34:44;100104.03;;;24.32;42.47
78990;BME280;68390;52.130;21.218;2023-07-22T11:37:12;100109.44;;;24.11;42.07
78990;BME280;68390;52.130;21.218;2023-07-22T11:39:38;100108.19;;;23.97;40.50
78990;BME280;68390;52.130;21.218;2023-07-22T11:42:07;100108.31;;;24.12;41.91
78990;BME280;68390;52.130;21.218;2023-07-22T11:44:32;100103.41;;;24.25;40.26
78990;BME280;68390;52.130;21.218;2023-07-22T11:51:57;100112.44;;;24.32;41.28
78990;BME280;68390;52.130;21.218;2023-07-22T11:54:23;100105.47;;;24.07;40.46
78990;BME280;68390;52.130;21.218;2023-07-22T11:56:49;100103.97;;;24.00;41.48
78990;BME280;68390;52.130;21.218;2023-07-22T11:59:14;100107.00;;;23.93;41.34
78990;BME280;68390;52.130;21.218;2023-07-22T12:01:43;100104.13;;;24.15;42.50
78990;BME280;68390;52.130;21.218;2023-07-22T12:04:11;100106.56;;;24.33;42.06
78990;BME280;68390;52.130;21.218;2023-07-22T12:06:36;100097.66;;;24.41;41.42
78990;BME280;68390;52.130;21.218;2023-07-22T12:09:02;100110.53;;;24.37;41.43
78990;BME280;68390;52.130;21.218;2023-07-22T12:11:32;100108.59;;;24.38;40.09
78990;BME280;68390;52.130;21.218;2023-07-22T12:14:24;100113.13;;;24.44;42.06
78990;BME280;68390;52.130;21.218;2023-07-22T12:16:55;100103.63;;;24.50;41.54
78990;BME280;68390;52.130;21.218;2023-07-22T12:19:22;100110.47;;;24.32;39.73
78990;BME280;68390;52.130;21.218;2023-07-22T12:21:48;100108.22;;;24.29;39.67
78990;BME280;68390;52.130;21.218;2023-07-22T12:24:14;100105.44;;;24.29;40.60
78990;BME280;68390;52.130;21.218;2023-07-22T12:26:40;100101.28;;;24.37;40.36
78990;BME280;68390;52.130;21.218;2023-07-22T12:29:05;100100.31;;;24.58;41.35
78990;BME280;68390;52.130;21.218;2023-07-22T12:31:30;100094.78;;;24.73;39.92
78990;BME280;68390;52.130;21.218;2023-07-22T12:33:56;100106.72;;;24.54;40.41
78990;BME280;68390;52.130;21.218;2023-07-22T12:36:21;100097.13;;;24.44;40.47
78990;BME280;68390;52.130;21.218;2023-07-22T12:38:46;100096.09;;;24.24;38.50
78990;BME280;68390;52.130;21.218;2023-07-22T12:41:12;100093.28;;;24.24;38.64
78990;BME280;68390;52.130;21.218;2023-07-22T12:43:37;100091.47;;;24.12;37.71
78990;BME280;68390;52.130;21.218;2023-07-22T12:46:02;100097.44;;;24.21;38.45
78990;BME280;68390;52.130;21.218;2023-07-22T12:48:28;100084.03;;;24.23;37.97
78990;BME280;68390;52.130;21.218;2023-07-22T12:50:53;100102.13;;;24.37;37.33
78990;BME280;68390;52.130;21.218;2023-07-22T12:53:19;100082.47;;;24.37;36.57
78990;BME280;68390;52.130;21.218;2023-07-22T12:55:44;100080.13;;;24.24;37.13
78990;BME280;68390;52.130;21.218;2023-07-22T12:58:10;100092.91;;;24.15;37.83